sensor_id;sensor_type;location;lat;lon;timestamp;pressure;altitude;pressure_sealevel;temperature;humidity
60055;BME280;45930;53.514;55.904;2023-04-09T00:00:17;49343.91;;;-149.77;45.96
60055;BME280;45930;53.514;55.904;2023-04-09T00:01:18;49294.41;;;-149.77;46.10
60055;BME280;45930;53.514;55.904;2023-04-09T00:02:19;49302.31;;;-149.77;45.90
60055;BME280;45930;53.514;55.904;2023-04-09T00:03:20;49282.50;;;-149.77;46.14
60055;BME280;45930;53.514;55.904;2023-04-09T00:04:21;49300.34;;;-149.77;46.19
60055;BME280;45930;53.514;55.904;2023-04-09T00:05:23;49310.25;;;-149.77;46.09
60055;BME280;45930;53.514;55.904;2023-04-09T00:06:24;49278.53;;;-149.77;46.19
60055;BME280;45930;53.514;55.904;2023-04-09T00:07:25;49312.22;;;-149.77;46.15
60055;BME280;45930;53.514;55.904;2023-04-09T00:08:26;49316.19;;;-149.77;45.97
60055;BME280;45930;53.514;55.904;2023-04-09T00:09:26;49294.41;;;-149.77;46.08
60055;BME280;45930;53.514;55.904;2023-04-09T00:10:27;49322.13;;;-149.77;45.96
60055;BME280;45930;53.514;55.904;2023-04-09T00:11:28;49318.16;;;-149.77;45.89
60055;BME280;45930;53.514;55.904;2023-04-09T00:12:29;49298.34;;;-149.77;45.51
60055;BME280;45930;53.514;55.904;2023-04-09T00:13:30;49306.28;;;-149.77;45.42
60055;BME280;45930;53.514;55.904;2023-04-09T00:14:30;49314.19;;;-149.77;45.41
60055;BME280;45930;53.514;55.904;2023-04-09T00:15:31;49304.28;;;-149.77;45.55
60055;BME280;45930;53.514;55.904;2023-04-09T00:16:32;49316.19;;;-149.77;45.66
60055;BME280;45930;53.514;55.904;2023-04-09T00:17:33;49282.50;;;-149.77;45.51
60055;BME280;45930;53.514;55.904;2023-04-09T00:18:34;49294.41;;;-149.77;45.55
60055;BME280;45930;53.514;55.904;2023-04-09T00:19:35;49302.31;;;-149.77;45.68
60055;BME280;45930;53.514;55.904;2023-04-09T00:20:35;49339.94;;;-149.77;45.74
60055;BME280;45930;53.514;55.904;2023-04-09T00:21:36;49314.19;;;-149.77;46.14
60055;BME280;45930;53.514;55.904;2023-04-09T00:22:37;49322.13;;;-149.77;46.49
60055;BME280;45930;53.514;55.904;2023-04-09T00:23:38;49316.19;;;-149.77;46.56
60055;BME280;45930;53.514;55.904;2023-04-09T00:24:39;49332.03;;;-149.77;46.51
60055;BME280;45930;53.514;55.904;2023-04-09T00:25:40;49298.34;;;-149.77;46.58
60055;BME280;45930;53.514;55.904;2023-04-09T00:26:41;49308.25;;;-149.77;46.63
60055;BME280;45930;53.514;55.904;2023-04-09T00:27:42;49286.47;;;-149.77;46.94
60055;BME280;45930;53.514;55.904;2023-04-09T00:28:43;49294.41;;;-149.77;46.85
60055;BME280;45930;53.514;55.904;2023-04-09T00:29:44;49286.47;;;-149.77;46.41
60055;BME280;45930;53.514;55.904;2023-04-09T00:30:44;49290.44;;;-149.77;46.14
60055;BME280;45930;53.514;55.904;2023-04-09T00:31:45;49332.03;;;-149.77;46.42
60055;BME280;45930;53.514;55.904;2023-04-09T00:32:46;49306.28;;;-149.77;46.46
60055;BME280;45930;53.514;55.904;2023-04-09T00:33:47;49284.50;;;-149.77;46.65
60055;BME280;45930;53.514;55.904;2023-04-09T00:34:48;49312.22;;;-149.77;46.44
60055;BME280;45930;53.514;55.904;2023-04-09T00:35:49;49316.19;;;-149.77;46.56
60055;BME280;45930;53.514;55.904;2023-04-09T00:36:50;49312.22;;;-149.77;46.47
60055;BME280;45930;53.514;55.904;2023-04-09T00:37:51;49330.03;;;-149.77;46.66
60055;BME280;45930;53.514;55.904;2023-04-09T00:38:52;49302.31;;;-149.77;46.55
60055;BME280;45930;53.514;55.904;2023-04-09T00:39:53;49302.31;;;-149.77;46.95
60055;BME280;45930;53.514;55.904;2023-04-09T00:40:54;49334.00;;;-149.77;47.14
60055;BME280;45930;53.514;55.904;2023-04-09T00:41:59;49306.28;;;-149.77;46.86
60055;BME280;45930;53.514;55.904;2023-04-09T00:43:02;49341.94;;;-149.77;46.50
60055;BME280;45930;53.514;55.904;2023-04-09T00:44:03;49300.34;;;-149.77;46.50
60055;BME280;45930;53.514;55.904;2023-04-09T00:45:04;49322.13;;;-149.77;46.50
60055;BME280;45930;53.514;55.904;2023-04-09T00:46:06;49324.09;;;-149.77;46.51
60055;BME280;45930;53.514;55.904;2023-04-09T00:47:07;49302.31;;;-149.77;46.71
60055;BME280;45930;53.514;55.904;2023-04-09T00:48:08;49324.09;;;-149.77;46.81
60055;BME280;45930;53.514;55.904;2023-04-09T00:49:09;49300.34;;;-149.77;47.01
60055;BME280;45930;53.514;55.904;2023-04-09T00:50:10;49322.13;;;-149.77;47.66
60055;BME280;45930;53.514;55.904;2023-04-09T00:51:11;49312.22;;;-149.77;47.37
60055;BME280;45930;53.514;55.904;2023-04-09T00:52:12;49310.25;;;-149.77;47.30
60055;BME280;45930;53.514;55.904;2023-04-09T00:53:13;49306.28;;;-149.77;46.75
60055;BME280;45930;53.514;55.904;2023-04-09T00:54:14;49292.41;;;-149.77;46.45
60055;BME280;45930;53.514;55.904;2023-04-09T00:55:15;49294.41;;;-149.77;46.61
60055;BME280;45930;53.514;55.904;2023-04-09T00:56:18;49294.41;;;-149.77;46.92
60055;BME280;45930;53.514;55.904;2023-04-09T00:57:21;49306.28;;;-149.77;47.05
60055;BME280;45930;53.514;55.904;2023-04-09T00:58:22;49318.16;;;-149.77;47.34
60055;BME280;45930;53.514;55.904;2023-04-09T00:59:24;49328.06;;;-149.77;47.04
60055;BME280;45930;53.514;55.904;2023-04-09T01:00:25;49326.09;;;-149.77;46.96
60055;BME280;45930;53.514;55.904;2023-04-09T01:01:27;49334.00;;;-149.77;46.79
60055;BME280;45930;53.514;55.904;2023-04-09T01:02:28;49292.41;;;-149.77;46.74
60055;BME280;45930;53.514;55.904;2023-04-09T01:03:30;49310.25;;;-149.77;46.81
60055;BME280;45930;53.514;55.904;2023-04-09T01:04:31;49304.28;;;-149.77;46.52
60055;BME280;45930;53.514;55.904;2023-04-09T01:07:31;49288.44;;;-149.77;46.79
60055;BME280;45930;53.514;55.904;2023-04-09T01:09:56;49320.16;;;-149.77;46.71
60055;BME280;45930;53.514;55.904;2023-04-09T01:11:37;49318.16;;;-149.77;46.89
60055;BME280;45930;53.514;55.904;2023-04-09T01:13:05;49306.28;;;-149.77;47.14
60055;BME280;45930;53.514;55.904;2023-04-09T01:14:12;49306.28;;;-149.77;47.71
60055;BME280;45930;53.514;55.904;2023-04-09T01:15:17;49316.19;;;-149.77;47.76
60055;BME280;45930;53.514;55.904;2023-04-09T01:16:22;49310.25;;;-149.77;47.81
60055;BME280;45930;53.514;55.904;2023-04-09T01:17:30;49290.44;;;-149.77;47.68
60055;BME280;45930;53.514;55.904;2023-04-09T01:18:43;49324.09;;;-149.77;47.74
60055;BME280;45930;53.514;55.904;2023-04-09T01:19:53;49343.91;;;-149.77;47.79
60055;BME280;45930;53.514;55.904;2023-04-09T01:21:12;49326.09;;;-149.77;48.06
60055;BME280;45930;53.514;55.904;2023-04-09T01:22:30;49310.25;;;-149.77;48.01
60055;BME280;45930;53.514;55.904;2023-04-09T01:25:20;49337.97;;;-149.77;48.71
60055;BME280;45930;53.514;55.904;2023-04-09T01:28:03;49320.16;;;-149.77;49.20
60055;BME280;45930;53.514;55.904;2023-04-09T01:29:06;49322.13;;;-149.77;49.13
60055;BME280;45930;53.514;55.904;2023-04-09T01:30:08;49294.41;;;-149.77;48.71
60055;BME280;45930;53.514;55.904;2023-04-09T01:31:16;49318.16;;;-149.77;48.73
60055;BME280;45930;53.514;55.904;2023-04-09T01:32:18;49318.16;;;-149.77;48.89
60055;BME280;45930;53.514;55.904;2023-04-09T01:33:20;49330.03;;;-149.77;49.16
60055;BME280;45930;53.514;55.904;2023-04-09T01:34:22;49324.09;;;-149.77;49.44
60055;BME280;45930;53.514;55.904;2023-04-09T01:35:24;49337.97;;;-149.77;49.34
60055;BME280;45930;53.514;55.904;2023-04-09T01:36:28;49316.19;;;-149.77;49.14
60055;BME280;45930;53.514;55.904;2023-04-09T01:37:31;49351.84;;;-149.77;49.03
60055;BME280;45930;53.514;55.904;2023-04-09T01:38:34;49326.09;;;-149.77;48.96
60055;BME280;45930;53.514;55.904;2023-04-09T01:39:36;49326.09;;;-149.77;49.05
60055;BME280;45930;53.514;55.904;2023-04-09T01:40:38;49337.97;;;-149.77;48.96
60055;BME280;45930;53.514;55.904;2023-04-09T01:41:40;49332.03;;;-149.77;48.76
60055;BME280;45930;53.514;55.904;2023-04-09T01:42:41;49314.19;;;-149.77;48.76
60055;BME280;45930;53.514;55.904;2023-04-09T01:43:43;49312.22;;;-149.77;48.91
60055;BME280;45930;53.514;55.904;2023-04-09T01:44:45;49302.31;;;-149.77;48.96
60055;BME280;45930;53.514;55.904;2023-04-09T01:45:46;49334.00;;;-149.77;48.86
60055;BME280;45930;53.514;55.904;2023-04-09T01:46:49;49328.06;;;-149.77;49.06
60055;BME280;45930;53.514;55.904;2023-04-09T01:47:50;49322.13;;;-149.77;48.99
60055;BME280;45930;53.514;55.904;2023-04-09T01:48:51;49318.16;;;-149.77;49.05
60055;BME280;45930;53.514;55.904;2023-04-09T01:49:52;49339.94;;;-149.77;49.11
60055;BME280;45930;53.514;55.904;2023-04-09T01:50:54;49332.03;;;-149.77;49.16
60055;BME280;45930;53.514;55.904;2023-04-09T01:51:55;49322.13;;;-149.77;49.66
60055;BME280;45930;53.514;55.904;2023-04-09T01:52:56;49322.13;;;-149.77;49.71
60055;BME280;45930;53.514;55.904;2023-04-09T01:53:59;49318.16;;;-149.77;49.71
60055;BME280;45930;53.514;55.904;2023-04-09T01:55:00;49351.84;;;-149.77;50.35
60055;BME280;45930;53.514;55.904;2023-04-09T01:56:00;49316.19;;;-149.77;50.54
60055;BME280;45930;53.514;55.904;2023-04-09T01:57:01;49330.03;;;-149.77;50.36
60055;BME280;45930;53.514;55.904;2023-04-09T01:58:02;49343.91;;;-149.77;50.36
60055;BME280;45930;53.514;55.904;2023-04-09T01:59:03;49322.13;;;-149.77;50.01
60055;BME280;45930;53.514;55.904;2023-04-09T02:00:05;49318.16;;;-149.77;49.51
60055;BME280;45930;53.514;55.904;2023-04-09T02:01:14;49328.06;;;-149.77;49.36
60055;BME280;45930;53.514;55.904;2023-04-09T02:02:19;49316.19;;;-149.77;49.48
60055;BME280;45930;53.514;55.904;2023-04-09T02:03:26;49318.16;;;-149.77;49.29
60055;BME280;45930;53.514;55.904;2023-04-09T02:04:40;49337.97;;;-149.77;49.47
60055;BME280;45930;53.514;55.904;2023-04-09T02:05:52;49324.09;;;-149.77;49.56
60055;BME280;45930;53.514;55.904;2023-04-09T02:08:06;49334.00;;;-149.77;49.79
60055;BME280;45930;53.514;55.904;2023-04-09T02:09:11;49306.28;;;-149.77;49.75
60055;BME280;45930;53.514;55.904;2023-04-09T02:10:13;49302.31;;;-149.77;49.76
60055;BME280;45930;53.514;55.904;2023-04-09T02:11:17;49302.31;;;-149.77;49.94
60055;BME280;45930;53.514;55.904;2023-04-09T02:12:21;49318.16;;;-149.77;49.84
60055;BME280;45930;53.514;55.904;2023-04-09T02:13:24;49322.13;;;-149.77;49.68
60055;BME280;45930;53.514;55.904;2023-04-09T02:14:27;49302.31;;;-149.77;49.90
60055;BME280;45930;53.514;55.904;2023-04-09T02:15:30;49322.13;;;-149.77;49.69
60055;BME280;45930;53.514;55.904;2023-04-09T02:16:32;49328.06;;;-149.77;49.57
60055;BME280;45930;53.514;55.904;2023-04-09T02:17:34;49314.19;;;-149.77;49.56
60055;BME280;45930;53.514;55.904;2023-04-09T02:18:34;49290.44;;;-149.77;49.61
60055;BME280;45930;53.514;55.904;2023-04-09T02:19:40;49302.31;;;-149.77;49.56
60055;BME280;45930;53.514;55.904;2023-04-09T02:20:40;49324.09;;;-149.77;49.13
60055;BME280;45930;53.514;55.904;2023-04-09T02:21:41;49286.47;;;-149.77;49.00
60055;BME280;45930;53.514;55.904;2023-04-09T02:22:44;49298.34;;;-149.77;48.99
60055;BME280;45930;53.514;55.904;2023-04-09T02:23:45;49302.31;;;-149.77;49.05
60055;BME280;45930;53.514;55.904;2023-04-09T02:24:46;49316.19;;;-149.77;49.01
60055;BME280;45930;53.514;55.904;2023-04-09T02:25:47;49286.47;;;-149.77;49.40
60055;BME280;45930;53.514;55.904;2023-04-09T02:26:48;49304.28;;;-149.77;49.63
60055;BME280;45930;53.514;55.904;2023-04-09T02:27:48;49292.41;;;-149.77;49.57
60055;BME280;45930;53.514;55.904;2023-04-09T02:28:49;49294.41;;;-149.77;49.83
60055;BME280;45930;53.514;55.904;2023-04-09T02:29:50;49294.41;;;-149.77;50.01
60055;BME280;45930;53.514;55.904;2023-04-09T02:30:51;49278.53;;;-149.77;50.03
60055;BME280;45930;53.514;55.904;2023-04-09T02:31:52;49306.28;;;-149.77;49.70
60055;BME280;45930;53.514;55.904;2023-04-09T02:32:53;49322.13;;;-149.77;49.73
60055;BME280;45930;53.514;55.904;2023-04-09T02:33:54;49288.44;;;-149.77;49.77
60055;BME280;45930;53.514;55.904;2023-04-09T02:34:54;49276.56;;;-149.77;49.47
60055;BME280;45930;53.514;55.904;2023-04-09T02:35:55;49284.50;;;-149.77;49.31
60055;BME280;45930;53.514;55.904;2023-04-09T02:36:56;49292.41;;;-149.77;49.39
60055;BME280;45930;53.514;55.904;2023-04-09T02:37:57;49266.66;;;-149.77;49.33
60055;BME280;45930;53.514;55.904;2023-04-09T02:38:58;49270.63;;;-149.77;49.22
60055;BME280;45930;53.514;55.904;2023-04-09T02:39:58;49298.34;;;-149.77;49.51
60055;BME280;45930;53.514;55.904;2023-04-09T02:40:59;49288.44;;;-149.77;49.43
60055;BME280;45930;53.514;55.904;2023-04-09T02:42:00;49290.44;;;-149.77;49.41
60055;BME280;45930;53.514;55.904;2023-04-09T02:43:01;49278.53;;;-149.77;49.41
60055;BME280;45930;53.514;55.904;2023-04-09T02:44:02;49270.63;;;-149.77;49.56
60055;BME280;45930;53.514;55.904;2023-04-09T02:45:03;49268.63;;;-149.77;49.60
60055;BME280;45930;53.514;55.904;2023-04-09T02:46:06;49260.72;;;-149.77;49.65
60055;BME280;45930;53.514;55.904;2023-04-09T02:47:07;49290.44;;;-149.77;49.70
60055;BME280;45930;53.514;55.904;2023-04-09T02:48:08;49268.63;;;-149.77;49.64
60055;BME280;45930;53.514;55.904;2023-04-09T02:49:09;49290.44;;;-149.77;49.59
60055;BME280;45930;53.514;55.904;2023-04-09T02:50:10;49288.44;;;-149.77;49.54
60055;BME280;45930;53.514;55.904;2023-04-09T02:51:10;49276.56;;;-149.77;49.93
60055;BME280;45930;53.514;55.904;2023-04-09T02:52:11;49276.56;;;-149.77;49.93
60055;BME280;45930;53.514;55.904;2023-04-09T02:53:12;49282.50;;;-149.77;50.08
60055;BME280;45930;53.514;55.904;2023-04-09T02:54:13;49282.50;;;-149.77;50.18
60055;BME280;45930;53.514;55.904;2023-04-09T02:55:14;49290.44;;;-149.77;50.43
60055;BME280;45930;53.514;55.904;2023-04-09T02:56:15;49282.50;;;-149.77;50.50
60055;BME280;45930;53.514;55.904;2023-04-09T02:57:15;49244.88;;;-149.77;50.48
60055;BME280;45930;53.514;55.904;2023-04-09T02:58:16;49274.59;;;-149.77;50.63
60055;BME280;45930;53.514;55.904;2023-04-09T02:59:17;49284.50;;;-149.77;50.86
60055;BME280;45930;53.514;55.904;2023-04-09T03:00:17;49274.59;;;-149.77;50.79
60055;BME280;45930;53.514;55.904;2023-04-09T03:01:19;49272.59;;;-149.77;50.63
60055;BME280;45930;53.514;55.904;2023-04-09T03:02:20;49290.44;;;-149.77;50.77
60055;BME280;45930;53.514;55.904;2023-04-09T03:03:21;49246.84;;;-149.77;50.76
60055;BME280;45930;53.514;55.904;2023-04-09T03:04:21;49272.59;;;-149.77;50.69
60055;BME280;45930;53.514;55.904;2023-04-09T03:05:22;49272.59;;;-149.77;51.04
60055;BME280;45930;53.514;55.904;2023-04-09T03:06:23;49254.78;;;-149.77;50.68
60055;BME280;45930;53.514;55.904;2023-04-09T03:07:24;49288.44;;;-149.77;50.57
60055;BME280;45930;53.514;55.904;2023-04-09T03:08:25;49270.63;;;-149.77;50.53
60055;BME280;45930;53.514;55.904;2023-04-09T03:09:25;49262.69;;;-149.77;50.46
60055;BME280;45930;53.514;55.904;2023-04-09T03:10:26;49266.66;;;-149.77;50.54
60055;BME280;45930;53.514;55.904;2023-04-09T03:11:27;49240.91;;;-149.77;50.16
60055;BME280;45930;53.514;55.904;2023-04-09T03:12:28;49244.88;;;-149.77;50.23
60055;BME280;45930;53.514;55.904;2023-04-09T03:13:28;49227.03;;;-149.77;50.21
60055;BME280;45930;53.514;55.904;2023-04-09T03:14:29;49270.63;;;-149.77;49.69
60055;BME280;45930;53.514;55.904;2023-04-09T03:15:30;49254.78;;;-149.77;49.91
60055;BME280;45930;53.514;55.904;2023-04-09T03:16:31;49238.94;;;-149.77;49.72
60055;BME280;45930;53.514;55.904;2023-04-09T03:17:32;49266.66;;;-149.77;49.58
60055;BME280;45930;53.514;55.904;2023-04-09T03:18:32;49244.88;;;-149.77;49.61
60055;BME280;45930;53.514;55.904;2023-04-09T03:19:33;49242.91;;;-149.77;49.55
60055;BME280;45930;53.514;55.904;2023-04-09T03:20:36;49234.97;;;-149.77;49.43
60055;BME280;45930;53.514;55.904;2023-04-09T03:21:38;49242.91;;;-149.77;49.38
60055;BME280;45930;53.514;55.904;2023-04-09T03:22:38;49231.00;;;-149.77;48.71
60055;BME280;45930;53.514;55.904;2023-04-09T03:23:39;49191.38;;;-149.77;48.96
60055;BME280;45930;53.514;55.904;2023-04-09T03:24:40;49231.00;;;-149.77;49.03
60055;BME280;45930;53.514;55.904;2023-04-09T03:25:41;49233.00;;;-149.77;48.66
60055;BME280;45930;53.514;55.904;2023-04-09T03:26:42;49221.09;;;-149.77;48.11
60055;BME280;45930;53.514;55.904;2023-04-09T03:27:42;49209.22;;;-149.77;48.49
60055;BME280;45930;53.514;55.904;2023-04-09T03:28:43;49203.28;;;-149.77;48.33
60055;BME280;45930;53.514;55.904;2023-04-09T03:29:44;49227.03;;;-149.77;47.71
60055;BME280;45930;53.514;55.904;2023-04-09T03:30:45;49225.06;;;-149.77;47.70
60055;BME280;45930;53.514;55.904;2023-04-09T03:31:46;49225.06;;;-149.77;47.51
60055;BME280;45930;53.514;55.904;2023-04-09T03:32:46;49205.25;;;-149.77;47.23
60055;BME280;45930;53.514;55.904;2023-04-09T03:33:47;49199.31;;;-149.77;47.67
60055;BME280;45930;53.514;55.904;2023-04-09T03:34:48;49213.19;;;-149.77;47.30
60055;BME280;45930;53.514;55.904;2023-04-09T03:35:49;49187.44;;;-149.77;47.34
60055;BME280;45930;53.514;55.904;2023-04-09T03:36:49;49203.28;;;-149.77;47.09
60055;BME280;45930;53.514;55.904;2023-04-09T03:37:50;49195.34;;;-149.77;46.50
60055;BME280;45930;53.514;55.904;2023-04-09T03:38:51;49213.19;;;-149.77;46.39
60055;BME280;45930;53.514;55.904;2023-04-09T03:39:52;49215.16;;;-149.77;46.28
60055;BME280;45930;53.514;55.904;2023-04-09T03:40:52;49234.97;;;-149.77;46.25
60055;BME280;45930;53.514;55.904;2023-04-09T03:41:53;49217.13;;;-149.77;45.59
60055;BME280;45930;53.514;55.904;2023-04-09T03:42:55;49205.25;;;-149.77;45.35
60055;BME280;45930;53.514;55.904;2023-04-09T03:43:56;49207.25;;;-149.77;45.59
60055;BME280;45930;53.514;55.904;2023-04-09T03:44:57;49195.34;;;-149.77;45.66
60055;BME280;45930;53.514;55.904;2023-04-09T03:45:58;49201.28;;;-149.77;45.13
60055;BME280;45930;53.514;55.904;2023-04-09T03:46:58;49175.53;;;-149.77;45.27
60055;BME280;45930;53.514;55.904;2023-04-09T03:47:59;49227.03;;;-149.77;45.16
60055;BME280;45930;53.514;55.904;2023-04-09T03:49:00;49195.34;;;-149.77;45.23
60055;BME280;45930;53.514;55.904;2023-04-09T03:50:01;49207.25;;;-149.77;44.99
60055;BME280;45930;53.514;55.904;2023-04-09T03:51:02;49177.53;;;-149.77;44.77
60055;BME280;45930;53.514;55.904;2023-04-09T03:52:05;49181.50;;;-149.77;44.50
60055;BME280;45930;53.514;55.904;2023-04-09T03:53:06;49207.25;;;-149.77;44.41
60055;BME280;45930;53.514;55.904;2023-04-09T03:54:07;49183.47;;;-149.77;44.16
60055;BME280;45930;53.514;55.904;2023-04-09T03:55:08;49185.44;;;-149.77;44.00
60055;BME280;45930;53.514;55.904;2023-04-09T03:56:09;49177.53;;;-149.77;43.94
60055;BME280;45930;53.514;55.904;2023-04-09T03:57:10;49221.09;;;-149.77;43.38
60055;BME280;45930;53.514;55.904;2023-04-09T03:58:11;49211.19;;;-149.77;42.85
60055;BME280;45930;53.514;55.904;2023-04-09T03:59:11;49201.28;;;-149.77;42.55
60055;BME280;45930;53.514;55.904;2023-04-09T04:00:12;49171.59;;;-149.77;42.34
60055;BME280;45930;53.514;55.904;2023-04-09T04:01:13;49179.50;;;-149.77;42.30
60055;BME280;45930;53.514;55.904;2023-04-09T04:02:14;49171.59;;;-149.77;42.06
60055;BME280;45930;53.514;55.904;2023-04-09T04:03:15;49207.25;;;-149.77;42.55
60055;BME280;45930;53.514;55.904;2023-04-09T04:04:15;49187.44;;;-149.77;41.89
60055;BME280;45930;53.514;55.904;2023-04-09T04:05:16;49191.38;;;-149.77;41.48
60055;BME280;45930;53.514;55.904;2023-04-09T04:06:17;49179.50;;;-149.77;41.73
60055;BME280;45930;53.514;55.904;2023-04-09T04:07:18;49165.63;;;-149.77;41.41
60055;BME280;45930;53.514;55.904;2023-04-09T04:08:18;49135.94;;;-149.77;41.33
60055;BME280;45930;53.514;55.904;2023-04-09T04:09:19;49165.63;;;-149.77;40.87
60055;BME280;45930;53.514;55.904;2023-04-09T04:10:20;49167.63;;;-149.77;40.92
60055;BME280;45930;53.514;55.904;2023-04-09T04:11:21;49177.53;;;-149.77;40.79
60055;BME280;45930;53.514;55.904;2023-04-09T04:12:21;49169.59;;;-149.77;40.74
60055;BME280;45930;53.514;55.904;2023-04-09T04:13:22;49171.59;;;-149.77;41.07
60055;BME280;45930;53.514;55.904;2023-04-09T04:14:23;49159.69;;;-149.77;41.23
60055;BME280;45930;53.514;55.904;2023-04-09T04:15:24;49187.44;;;-149.77;40.94
60055;BME280;45930;53.514;55.904;2023-04-09T04:16:25;49163.66;;;-149.77;40.59
60055;BME280;45930;53.514;55.904;2023-04-09T04:17:25;49177.53;;;-149.77;40.46
60055;BME280;45930;53.514;55.904;2023-04-09T04:18:26;49151.78;;;-149.77;40.29
60055;BME280;45930;53.514;55.904;2023-04-09T04:19:27;49159.69;;;-149.77;40.49
60055;BME280;45930;53.514;55.904;2023-04-09T04:20:27;49167.63;;;-149.77;39.93
60055;BME280;45930;53.514;55.904;2023-04-09T04:21:28;49143.84;;;-149.77;39.81
60055;BME280;45930;53.514;55.904;2023-04-09T04:22:29;49165.63;;;-149.77;40.08
60055;BME280;45930;53.514;55.904;2023-04-09T04:23:30;49147.81;;;-149.77;40.08
60055;BME280;45930;53.514;55.904;2023-04-09T04:24:30;49149.78;;;-149.77;39.87
60055;BME280;45930;53.514;55.904;2023-04-09T04:25:31;49133.94;;;-149.77;40.08
60055;BME280;45930;53.514;55.904;2023-04-09T04:26:32;49161.69;;;-149.77;39.80
60055;BME280;45930;53.514;55.904;2023-04-09T04:27:33;49151.78;;;-149.77;39.86
60055;BME280;45930;53.514;55.904;2023-04-09T04:28:33;49159.69;;;-149.77;39.83
60055;BME280;45930;53.514;55.904;2023-04-09T04:29:34;49145.84;;;-149.77;39.52
60055;BME280;45930;53.514;55.904;2023-04-09T04:30:37;49151.78;;;-149.77;39.15
60055;BME280;45930;53.514;55.904;2023-04-09T04:31:40;49151.78;;;-149.77;39.05
60055;BME280;45930;53.514;55.904;2023-04-09T04:32:41;49139.91;;;-149.77;38.74
60055;BME280;45930;53.514;55.904;2023-04-09T04:33:41;49143.84;;;-149.77;38.67
60055;BME280;45930;53.514;55.904;2023-04-09T04:34:42;49128.00;;;-149.77;38.82
60055;BME280;45930;53.514;55.904;2023-04-09T04:35:43;49141.88;;;-149.77;38.47
60055;BME280;45930;53.514;55.904;2023-04-09T04:36:44;49139.91;;;-149.77;38.85
60055;BME280;45930;53.514;55.904;2023-04-09T04:37:48;49133.94;;;-149.77;38.55
60055;BME280;45930;53.514;55.904;2023-04-09T04:38:50;49126.03;;;-149.77;38.32
60055;BME280;45930;53.514;55.904;2023-04-09T04:39:51;49128.00;;;-149.77;38.55
60055;BME280;45930;53.514;55.904;2023-04-09T04:40:51;49149.78;;;-149.77;38.54
60055;BME280;45930;53.514;55.904;2023-04-09T04:41:52;49116.13;;;-149.77;38.66
60055;BME280;45930;53.514;55.904;2023-04-09T04:42:53;49135.94;;;-149.77;38.41
60055;BME280;45930;53.514;55.904;2023-04-09T04:43:54;49120.09;;;-149.77;38.04
60055;BME280;45930;53.514;55.904;2023-04-09T04:44:54;49135.94;;;-149.77;38.03
60055;BME280;45930;53.514;55.904;2023-04-09T04:45:55;49153.75;;;-149.77;37.76
60055;BME280;45930;53.514;55.904;2023-04-09T04:46:56;49108.19;;;-149.77;37.75
60055;BME280;45930;53.514;55.904;2023-04-09T04:47:57;49124.03;;;-149.77;37.66
60055;BME280;45930;53.514;55.904;2023-04-09T04:48:58;49143.84;;;-149.77;37.63
60055;BME280;45930;53.514;55.904;2023-04-09T04:49:58;49100.28;;;-149.77;37.54
60055;BME280;45930;53.514;55.904;2023-04-09T04:51:00;49124.03;;;-149.77;37.25
60055;BME280;45930;53.514;55.904;2023-04-09T04:52:01;49104.25;;;-149.77;36.96
60055;BME280;45930;53.514;55.904;2023-04-09T04:53:02;49128.00;;;-149.77;36.52
60055;BME280;45930;53.514;55.904;2023-04-09T04:54:03;49116.13;;;-149.77;36.68
60055;BME280;45930;53.514;55.904;2023-04-09T04:55:04;49116.13;;;-149.77;36.88
60055;BME280;45930;53.514;55.904;2023-04-09T04:56:05;49114.16;;;-149.77;36.98
60055;BME280;45930;53.514;55.904;2023-04-09T04:57:06;49108.19;;;-149.77;36.77
60055;BME280;45930;53.514;55.904;2023-04-09T04:58:06;49108.19;;;-149.77;36.81
60055;BME280;45930;53.514;55.904;2023-04-09T04:59:07;49100.28;;;-149.77;36.52
60055;BME280;45930;53.514;55.904;2023-04-09T05:00:08;49094.34;;;-149.77;36.33
60055;BME280;45930;53.514;55.904;2023-04-09T05:01:09;49116.13;;;-149.77;36.14
60055;BME280;45930;53.514;55.904;2023-04-09T05:02:10;49100.28;;;-149.77;35.99
60055;BME280;45930;53.514;55.904;2023-04-09T05:03:11;49104.25;;;-149.77;35.90
60055;BME280;45930;53.514;55.904;2023-04-09T05:04:12;49120.09;;;-149.77;35.60
60055;BME280;45930;53.514;55.904;2023-04-09T05:05:12;49084.44;;;-149.77;35.21
60055;BME280;45930;53.514;55.904;2023-04-09T05:06:13;49139.91;;;-149.77;35.47
60055;BME280;45930;53.514;55.904;2023-04-09T05:07:14;49114.16;;;-149.77;34.98
60055;BME280;45930;53.514;55.904;2023-04-09T05:08:15;49120.09;;;-149.77;35.13
60055;BME280;45930;53.514;55.904;2023-04-09T05:09:16;49120.09;;;-149.77;34.97
60055;BME280;45930;53.514;55.904;2023-04-09T05:10:17;49104.25;;;-149.77;35.00
60055;BME280;45930;53.514;55.904;2023-04-09T05:11:18;49102.25;;;-149.77;35.37
60055;BME280;45930;53.514;55.904;2023-04-09T05:12:18;49096.31;;;-149.77;34.98
60055;BME280;45930;53.514;55.904;2023-04-09T05:13:19;49137.91;;;-149.77;34.29
60055;BME280;45930;53.514;55.904;2023-04-09T05:14:20;49104.25;;;-149.77;33.97
60055;BME280;45930;53.514;55.904;2023-04-09T05:15:21;49104.25;;;-149.77;34.06
60055;BME280;45930;53.514;55.904;2023-04-09T05:16:22;49128.00;;;-149.77;34.16
60055;BME280;45930;53.514;55.904;2023-04-09T05:17:23;49120.09;;;-149.77;34.20
60055;BME280;45930;53.514;55.904;2023-04-09T05:18:24;49096.31;;;-149.77;34.62
60055;BME280;45930;53.514;55.904;2023-04-09T05:19:25;49102.25;;;-149.77;34.34
60055;BME280;45930;53.514;55.904;2023-04-09T05:20:26;49122.06;;;-149.77;33.97
60055;BME280;45930;53.514;55.904;2023-04-09T05:21:27;49106.22;;;-149.77;33.51
60055;BME280;45930;53.514;55.904;2023-04-09T05:22:27;49094.34;;;-149.77;33.16